Stockholm, Sweden

7:08 AM CEST on July 31, 2016 (GMT +0200)
Västra Kungsbrokopplet | | Change Station

Elev 42 ft 59.33 °N, 18.05 °E | Updated 27 seconds ago

Partly Cloudy
Partly Cloudy
58.8 °F
Feels Like 58.8 °F
N
1.2
Wind Variable Wind from East
Gusts 3.7 mph

Today
High -- | Low -- °F
--% Chance of Precip.
Yesterday
High -- | Low -- °F
Precip. -- in
Pressure 29.68 in
Visibility 6.2 miles
Clouds Few 1300 ft
Dew Point 52 °F
Humidity 78%
Rainfall 0.54 in
Snow Depth Not available.
4:31 AM 9:15 PM
Waning Crescent, 9% visible
METAR ESSB 310450Z AUTO 23009KT 9999 FEW013/// 15/11 Q1005
Pressure 29.68 in
Visibility 6.2 miles
Clouds Few 1300 ft
Dew Point 52 °F
Humidity 78%
Rainfall 0.54 in
Snow Depth Not available.
4:31 AM 9:15 PM
Waning Crescent, 9% visible
METAR ESSB 310450Z AUTO 23009KT 9999 FEW013/// 15/11 Q1005

10-Day Weather Forecast

×

Almanac

Astronomy

Jul. 31, 2016 Rise Set
Actual Time
Civil Twilight
Nautical Twilight
Astronomical Twilight
Moon
Length of Visible Light
Length of Day
Tomorrow will be .
, % of the Moon is Illuminated

Today's Extremes

Country Highs Country Lows

Community

WunderPhotos

Upload Photos

1,928,761 photos uploaded!

WunderBlog® & News

Nearby

Air Quality

  Air Quality AQ Index Pollutant
Not available.

Snow Depth

Station Depth Elevation

Earthquake Activity

City Distance Mag. Time & Date
Minimum magnitude displayed is 2.5.

Coastal Water Temperatures

Place Temperature

Stations

Nearby Weather Stations

Station Location Temp. Windchill Dew Point Humidity Wind Precip. Elev Updated Type